createdAt,value
2023-04-15T00:00:59.588Z,98766.72
2023-04-15T00:03:27.006Z,98767.63
2023-04-15T00:05:54.388Z,98763.06
2023-04-15T00:08:20.900Z,98772.59
2023-04-15T00:10:47.899Z,98770.91
2023-04-15T00:13:15.313Z,98767.50
2023-04-15T00:15:42.700Z,98759.94
2023-04-15T00:18:09.748Z,98764.94
2023-04-15T00:20:37.139Z,98760.72
2023-04-15T00:23:04.212Z,98761.16
2023-04-15T00:25:31.204Z,98760.28
2023-04-15T00:27:57.805Z,98759.13
2023-04-15T00:30:24.343Z,98757.59
2023-04-15T00:32:50.923Z,98769.47
2023-04-15T00:35:18.227Z,98763.13
2023-04-15T00:37:46.180Z,98760.13
2023-04-15T00:40:13.752Z,98757.72
2023-04-15T00:42:40.747Z,98757.34
2023-04-15T00:45:08.880Z,98754.59
2023-04-15T00:47:37.239Z,98753.50
2023-04-15T00:50:05.029Z,98751.81
2023-04-15T00:52:32.024Z,98751.91
2023-04-15T00:54:59.503Z,98746.28
2023-04-15T00:57:26.250Z,98742.78
2023-04-15T00:59:52.983Z,98745.13
2023-04-15T01:02:19.981Z,98740.47
2023-04-15T01:04:47.092Z,98745.56
2023-04-15T01:07:13.820Z,98747.97
2023-04-15T01:09:40.858Z,98744.03
2023-04-15T01:12:08.546Z,98746.00
2023-04-15T01:14:35.830Z,98735.63
2023-04-15T01:17:02.311Z,98724.38
2023-04-15T01:19:29.262Z,98727.41
2023-04-15T01:21:56.432Z,98728.66
2023-04-15T01:24:24.076Z,98729.81
2023-04-15T01:26:50.531Z,98726.78
2023-04-15T01:29:18.070Z,98733.13
2023-04-15T01:31:55.971Z,98722.97
2023-04-15T01:34:23.344Z,98724.00
2023-04-15T01:36:50.066Z,98726.53
2023-04-15T01:39:16.672Z,98714.22
2023-04-15T01:41:43.341Z,98718.59
2023-04-15T01:44:10.097Z,98726.09
2023-04-15T01:46:37.283Z,98726.53
2023-04-15T01:49:04.046Z,98727.69
2023-04-15T01:51:30.587Z,98724.91
2023-04-15T01:53:57.074Z,98719.97
2023-04-15T01:56:24.565Z,98719.03
2023-04-15T01:58:51.794Z,98710.72
2023-04-15T02:01:19.825Z,98707.94
2023-04-15T02:03:47.776Z,98709.63
2023-04-15T02:06:14.714Z,98697.75
2023-04-15T02:08:41.240Z,98695.34
2023-04-15T02:11:08.190Z,98692.06
2023-04-15T02:13:34.919Z,98694.47
2023-04-15T02:16:01.686Z,98699.28
2023-04-15T02:18:29.137Z,98694.91
2023-04-15T02:20:58.354Z,98694.09
2023-04-15T02:23:25.590Z,98689.00
2023-04-15T02:25:53.355Z,98689.28
2023-04-15T02:28:21.805Z,98691.25
2023-04-15T02:30:52.640Z,98688.19
2023-04-15T02:33:20.284Z,98680.78
2023-04-15T02:35:47.323Z,98679.28
2023-04-15T02:38:14.784Z,98682.41
2023-04-15T02:40:41.618Z,98685.97
2023-04-15T02:43:08.248Z,98678.91
2023-04-15T02:45:34.875Z,98680.78
2023-04-15T02:48:06.160Z,98689.19
2023-04-15T02:50:32.896Z,98691.84
2023-04-15T02:53:01.174Z,98693.66
2023-04-15T02:55:27.821Z,98700.22
2023-04-15T02:57:54.351Z,98700.44
2023-04-15T03:00:20.941Z,98694.03
2023-04-15T03:02:47.601Z,98686.22
2023-04-15T03:05:14.863Z,98680.25
2023-04-15T03:07:41.460Z,98680.97
2023-04-15T03:10:08.651Z,98674.63
2023-04-15T03:12:35.108Z,98671.50
2023-04-15T03:15:02.151Z,98678.22
2023-04-15T03:17:28.963Z,98681.06
2023-04-15T03:19:55.495Z,98679.00
2023-04-15T03:22:22.100Z,98680.25
2023-04-15T03:24:48.719Z,98680.50
2023-04-15T03:27:15.360Z,98675.59
2023-04-15T03:29:42.036Z,98674.28
2023-04-15T03:32:08.742Z,98675.88
2023-04-15T03:34:35.218Z,98671.88
2023-04-15T03:37:01.766Z,98673.25
2023-04-15T03:39:28.374Z,98663.00
2023-04-15T03:41:54.798Z,98664.88
2023-04-15T03:44:21.392Z,98663.00
2023-04-15T03:46:48.222Z,98661.47
2023-04-15T03:49:14.783Z,98659.13
2023-04-15T03:51:41.340Z,98653.06
2023-04-15T03:54:07.975Z,98653.88
2023-04-15T03:56:34.628Z,98655.03
2023-04-15T03:59:01.787Z,98652.88
2023-04-15T04:01:28.488Z,98649.00
2023-04-15T04:03:55.235Z,98648.72
2023-04-15T04:06:22.049Z,98643.59
2023-04-15T04:08:48.469Z,98647.91
2023-04-15T04:11:14.891Z,98646.09
2023-04-15T04:13:41.468Z,98647.19
2023-04-15T04:16:08.368Z,98659.84
2023-04-15T04:18:34.995Z,98672.53
2023-04-15T04:21:01.640Z,98669.78
2023-04-15T04:23:28.338Z,98658.69
2023-04-15T04:25:54.891Z,98664.66
2023-04-15T04:28:21.702Z,98654.47
2023-04-15T04:30:48.290Z,98653.66
2023-04-15T04:33:14.877Z,98655.63
2023-04-15T04:35:41.481Z,98660.81
2023-04-15T04:38:08.056Z,98658.41
2023-04-15T04:40:34.538Z,98648.50
2023-04-15T04:43:01.315Z,98657.25
2023-04-15T04:45:27.822Z,98670.28
2023-04-15T04:47:54.260Z,98666.06
2023-04-15T04:50:21.121Z,98668.69
2023-04-15T04:52:47.515Z,98669.56
2023-04-15T04:55:13.927Z,98671.22
2023-04-15T04:57:41.016Z,98671.97
2023-04-15T05:00:09.058Z,98667.94
2023-04-15T05:02:36.135Z,98674.00
2023-04-15T05:05:02.849Z,98673.56
2023-04-15T05:07:29.345Z,98672.47
2023-04-15T05:09:56.025Z,98669.69
2023-04-15T05:12:22.868Z,98675.31
2023-04-15T05:14:49.434Z,98675.03
2023-04-15T05:17:15.903Z,98672.97
2023-04-15T05:19:42.447Z,98682.13
2023-04-15T05:22:08.957Z,98679.91
2023-04-15T05:24:36.495Z,98679.97
2023-04-15T05:27:02.951Z,98683.56
2023-04-15T05:29:29.562Z,98683.91
2023-04-15T05:31:56.721Z,98687.56
2023-04-15T05:34:23.215Z,98690.56
2023-04-15T05:36:49.878Z,98691.28
2023-04-15T05:39:16.591Z,98694.72
2023-04-15T05:41:43.003Z,98683.47
2023-04-15T05:44:09.457Z,98695.72
2023-04-15T05:46:36.378Z,98698.06
2023-04-15T05:49:03.205Z,98697.19
2023-04-15T05:51:29.858Z,98709.28
2023-04-15T05:53:56.832Z,98710.75
2023-04-15T05:56:23.483Z,98719.13
2023-04-15T05:58:53.381Z,98711.63
2023-04-15T06:01:20.678Z,98711.63
2023-04-15T06:03:47.509Z,98714.03
2023-04-15T06:06:15.470Z,98722.63
2023-04-15T06:08:42.007Z,98718.75
2023-04-15T06:11:08.907Z,98727.59
2023-04-15T06:13:35.704Z,98724.25
2023-04-15T06:16:04.304Z,98724.06
2023-04-15T06:18:30.971Z,98729.22
2023-04-15T06:20:57.601Z,98733.03
2023-04-15T06:23:25.280Z,98735.66
2023-04-15T06:25:53.681Z,98736.97
2023-04-15T06:28:20.408Z,98731.94
2023-04-15T06:30:47.008Z,98732.28
2023-04-15T06:33:13.726Z,98735.22
2023-04-15T06:35:40.566Z,98739.50
2023-04-15T06:38:07.158Z,98748.13
2023-04-15T06:40:33.696Z,98738.50
2023-04-15T06:43:00.326Z,98740.97
2023-04-15T06:45:27.380Z,98745.06
2023-04-15T06:47:53.987Z,98746.59
2023-04-15T06:50:20.590Z,98743.75
2023-04-15T06:52:47.068Z,98746.00
2023-04-15T06:55:14.698Z,98754.81
2023-04-15T06:57:41.549Z,98750.66
2023-04-15T07:00:08.960Z,98751.84
2023-04-15T07:02:35.571Z,98766.28
2023-04-15T07:05:02.265Z,98771.69
2023-04-15T07:07:28.972Z,98761.53
2023-04-15T07:09:55.384Z,98771.69
2023-04-15T07:12:21.959Z,98776.94
2023-04-15T07:14:49.507Z,98775.19
2023-04-15T07:17:16.481Z,98778.03
2023-04-15T07:19:43.084Z,98779.63
2023-04-15T07:22:09.585Z,98780.28
2023-04-15T07:24:36.384Z,98780.44
2023-04-15T07:27:04.135Z,98784.16
2023-04-15T07:29:30.665Z,98786.63
2023-04-15T07:31:57.338Z,98782.13
2023-04-15T07:34:24.651Z,98787.66
2023-04-15T07:36:52.029Z,98795.78
2023-04-15T07:39:19.016Z,98790.00
2023-04-15T07:41:46.541Z,98800.22
2023-04-15T07:44:13.166Z,98800.94
2023-04-15T07:46:39.814Z,98800.81
2023-04-15T07:49:07.476Z,98795.69
2023-04-15T07:51:34.088Z,98804.16
2023-04-15T07:54:00.649Z,98805.63
2023-04-15T07:56:27.395Z,98802.91
2023-04-15T07:58:54.027Z,98802.56
2023-04-15T08:01:21.112Z,98814.75
2023-04-15T08:03:48.539Z,98814.38
2023-04-15T08:06:15.730Z,98818.75
2023-04-15T08:08:43.072Z,98815.59
2023-04-15T08:11:09.728Z,98819.88
2023-04-15T08:13:36.316Z,98830.19
2023-04-15T08:16:16.696Z,98838.31
2023-04-15T08:18:43.417Z,98837.53
2023-04-15T08:21:10.517Z,98836.59
2023-04-15T08:23:37.044Z,98831.66
2023-04-15T08:26:03.581Z,98829.09
2023-04-15T08:28:30.698Z,98833.47
2023-04-15T08:30:57.274Z,98829.69
2023-04-15T08:33:23.781Z,98837.94
2023-04-15T08:35:50.521Z,98848.63
2023-04-15T08:38:17.582Z,98844.47
2023-04-15T08:40:45.702Z,98850.06
2023-04-15T08:43:26.479Z,98840.00
2023-04-15T08:45:53.385Z,98846.78
2023-04-15T08:48:20.616Z,98845.72
2023-04-15T08:50:48.033Z,98851.03
2023-04-15T08:53:15.575Z,98850.53
2023-04-15T08:55:46.747Z,98851.94
2023-04-15T08:58:14.290Z,98854.50
2023-04-15T09:00:42.390Z,98853.06
2023-04-15T09:03:09.485Z,98864.44
2023-04-15T09:05:37.274Z,98862.09
2023-04-15T09:08:05.281Z,98863.63
2023-04-15T09:10:33.208Z,98868.28
2023-04-15T09:12:59.742Z,98873.19
2023-04-15T09:15:27.599Z,98870.97
2023-04-15T09:17:54.275Z,98878.88
2023-04-15T09:20:21.112Z,98883.78
2023-04-15T09:22:49.426Z,98883.47
2023-04-15T09:25:16.307Z,98881.09
2023-04-15T09:28:09.270Z,98889.25
2023-04-15T09:30:35.875Z,98889.38
2023-04-15T09:33:04.972Z,98887.72
2023-04-15T09:35:31.501Z,98887.72
2023-04-15T09:38:09.753Z,98897.94
2023-04-15T09:40:38.716Z,98902.75
2023-04-15T09:43:06.301Z,98891.59
2023-04-15T09:45:34.147Z,98904.22
2023-04-15T09:48:18.960Z,98916.47
2023-04-15T09:50:45.532Z,98920.19
2023-04-15T09:53:16.903Z,98920.22
2023-04-15T09:55:50.331Z,98919.28
2023-04-15T09:58:21.501Z,98927.25
2023-04-15T10:00:49.995Z,98920.69
2023-04-15T10:03:25.126Z,98928.09
2023-04-15T10:05:54.024Z,98924.47
2023-04-15T10:08:22.823Z,98928.59
2023-04-15T10:10:49.491Z,98929.41
2023-04-15T10:13:22.381Z,98933.00
2023-04-15T10:15:51.880Z,98928.03
2023-04-15T10:18:21.034Z,98937.97
2023-04-15T10:20:48.724Z,98942.41
2023-04-15T10:23:15.906Z,98944.44
2023-04-15T10:25:42.608Z,98948.63
2023-04-15T10:28:09.552Z,98950.38
2023-04-15T10:30:36.801Z,98959.88
2023-04-15T10:33:04.434Z,98955.31
2023-04-15T10:35:32.186Z,98946.19
2023-04-15T10:37:59.207Z,98953.81
2023-04-15T10:40:28.545Z,98953.09
2023-04-15T10:42:59.951Z,98950.38
2023-04-15T10:45:33.404Z,98955.22
2023-04-15T10:48:03.745Z,98952.94
2023-04-15T10:50:33.925Z,98952.41
2023-04-15T10:53:03.720Z,98961.28
2023-04-15T10:55:34.554Z,98957.16
2023-04-15T10:58:02.370Z,98951.75
2023-04-15T11:00:32.380Z,98956.81
2023-04-15T11:03:05.109Z,98966.69
2023-04-15T11:05:50.486Z,98969.22
2023-04-15T11:08:17.213Z,98962.94
2023-04-15T11:10:43.910Z,98976.31
2023-04-15T11:13:10.664Z,98976.38
2023-04-15T11:15:41.835Z,98978.28
2023-04-15T11:18:13.000Z,98983.41
2023-04-15T11:20:41.194Z,98980.19
2023-04-15T11:23:14.271Z,98977.84
2023-04-15T11:25:43.307Z,98988.97
2023-04-15T11:28:12.027Z,98986.28
2023-04-15T11:30:39.768Z,98997.00
2023-04-15T11:33:12.026Z,98995.56
2023-04-15T11:35:40.940Z,98999.22
2023-04-15T11:38:12.583Z,99001.31
2023-04-15T11:40:40.285Z,99004.75
2023-04-15T11:43:11.685Z,99005.06
2023-04-15T11:45:48.521Z,99010.09
2023-04-15T11:48:15.483Z,99008.53
2023-04-15T11:50:42.113Z,99006.97
2023-04-15T11:53:10.985Z,99001.03
2023-04-15T11:55:48.244Z,99020.69
2023-04-15T11:58:18.749Z,99011.50
2023-04-15T12:00:54.238Z,99016.06
2023-04-15T12:03:30.992Z,99024.75
2023-04-15T12:06:11.921Z,99032.56
2023-04-15T12:10:33.426Z,99032.56
2023-04-15T12:13:00.211Z,99041.34
2023-04-15T12:15:27.223Z,99043.69
2023-04-15T12:17:54.929Z,99047.78
2023-04-15T12:20:25.392Z,99050.44
2023-04-15T12:22:51.849Z,99049.31
2023-04-15T12:25:18.483Z,99052.19
2023-04-15T12:27:52.032Z,99057.66
2023-04-15T12:30:18.652Z,99061.97
2023-04-15T12:32:46.034Z,99054.50
2023-04-15T12:35:12.458Z,99067.63
2023-04-15T12:37:38.863Z,99068.06
2023-04-15T12:40:08.705Z,99070.94
2023-04-15T12:42:35.572Z,99071.28
2023-04-15T12:45:02.457Z,99069.19
2023-04-15T12:47:28.874Z,99073.75
2023-04-15T12:49:55.414Z,99073.84
2023-04-15T12:52:22.037Z,99077.69
2023-04-15T12:54:48.598Z,99083.91
2023-04-15T12:57:15.788Z,99081.44
2023-04-15T12:59:42.220Z,99085.53
2023-04-15T13:02:08.922Z,99084.44
2023-04-15T13:04:35.554Z,99087.66
2023-04-15T13:07:02.384Z,99098.50
2023-04-15T13:09:28.796Z,99095.97
2023-04-15T13:11:56.339Z,99093.31
2023-04-15T13:14:22.996Z,99093.44
2023-04-15T13:16:49.433Z,99098.75
2023-04-15T13:19:16.349Z,99099.22
2023-04-15T13:21:42.859Z,99103.28
2023-04-15T13:24:09.742Z,99099.78
2023-04-15T13:26:37.859Z,99106.91
2023-04-15T13:29:04.800Z,99106.47
2023-04-15T13:31:31.497Z,99105.72
2023-04-15T13:33:57.985Z,99105.69
2023-04-15T13:36:24.883Z,99107.81
2023-04-15T13:38:51.668Z,99109.19
2023-04-15T13:41:18.606Z,99119.06
2023-04-15T13:43:45.638Z,99116.00
2023-04-15T13:46:12.295Z,99114.25
2023-04-15T13:48:38.878Z,99124.34
2023-04-15T13:51:05.546Z,99126.81
2023-04-15T13:53:38.458Z,99127.09
2023-04-15T13:56:09.180Z,99125.69
2023-04-15T13:58:36.859Z,99123.53
2023-04-15T14:01:05.842Z,99139.47
2023-04-15T14:03:33.415Z,99132.22
2023-04-15T14:06:00.075Z,99133.97
2023-04-15T14:08:27.151Z,99135.47
2023-04-15T14:10:53.536Z,99130.75
2023-04-15T14:13:19.982Z,99139.59
2023-04-15T14:15:47.241Z,99147.84
2023-04-15T14:18:13.780Z,99142.72
2023-04-15T14:20:40.358Z,99155.97
2023-04-15T14:23:07.285Z,99158.59
2023-04-15T14:25:34.316Z,99156.16
2023-04-15T14:28:02.118Z,99166.03
2023-04-15T14:30:28.574Z,99167.34
2023-04-15T14:32:55.173Z,99166.84
2023-04-15T14:35:21.908Z,99166.47
2023-04-15T14:37:48.422Z,99167.13
2023-04-15T14:40:14.956Z,99168.38
2023-04-15T14:42:41.492Z,99172.00
2023-04-15T14:45:08.857Z,99170.53
2023-04-15T14:47:35.857Z,99175.78
2023-04-15T14:50:03.921Z,99178.66
2023-04-15T14:52:38.675Z,99182.25
2023-04-15T14:55:07.135Z,99194.19
2023-04-15T14:57:33.498Z,99192.13
2023-04-15T14:59:59.958Z,99187.09
2023-04-15T15:02:38.387Z,99198.84
2023-04-15T15:05:06.471Z,99202.03
2023-04-15T15:07:33.114Z,99201.81
2023-04-15T15:09:59.677Z,99203.34
2023-04-15T15:12:26.182Z,99208.91
2023-04-15T15:14:52.644Z,99213.69
2023-04-15T15:17:19.114Z,99211.56
2023-04-15T15:19:45.631Z,99217.66
2023-04-15T15:22:12.337Z,99221.63
2023-04-15T15:24:38.831Z,99219.94
2023-04-15T15:27:05.259Z,99232.81
2023-04-15T15:29:32.055Z,99226.03
2023-04-15T15:31:58.834Z,99240.66
2023-04-15T15:34:25.451Z,99230.72
2023-04-15T15:36:52.559Z,99245.66
2023-04-15T15:39:19.040Z,99237.75
2023-04-15T15:41:45.534Z,99244.50
2023-04-15T15:44:12.032Z,99251.78
2023-04-15T15:46:38.691Z,99252.22
2023-04-15T15:49:05.590Z,99249.03
2023-04-15T15:51:32.895Z,99256.34
2023-04-15T15:53:59.432Z,99249.59
2023-04-15T15:56:26.961Z,99256.13
2023-04-15T15:58:53.363Z,99260.78
2023-04-15T16:01:20.967Z,99264.34
2023-04-15T16:03:47.871Z,99265.16
2023-04-15T16:06:14.434Z,99261.91
2023-04-15T16:08:40.933Z,99267.44
2023-04-15T16:11:07.439Z,99262.16
2023-04-15T16:13:34.053Z,99265.34
2023-04-15T16:16:00.828Z,99272.97
2023-04-15T16:18:27.360Z,99281.44
2023-04-15T16:20:53.824Z,99275.91
2023-04-15T16:23:20.577Z,99273.50
2023-04-15T16:25:47.111Z,99283.34
2023-04-15T16:28:25.785Z,99288.19
2023-04-15T16:30:53.493Z,99288.25
2023-04-15T16:33:19.862Z,99291.97
2023-04-15T16:35:46.439Z,99288.50
2023-04-15T16:38:13.570Z,99285.13
2023-04-15T16:40:39.987Z,99289.53
2023-04-15T16:43:11.463Z,99297.91
2023-04-15T16:45:38.283Z,99296.59
2023-04-15T16:48:05.000Z,99301.31
2023-04-15T16:50:31.584Z,99303.06
2023-04-15T16:52:58.118Z,99314.50
2023-04-15T16:55:25.513Z,99305.34
2023-04-15T16:58:02.135Z,99309.69
2023-04-15T17:00:29.858Z,99318.44
2023-04-15T17:02:56.542Z,99318.44
2023-04-15T17:05:23.418Z,99318.34
2023-04-15T17:07:49.850Z,99332.94
2023-04-15T17:10:16.472Z,99318.88
2023-04-15T17:12:42.971Z,99323.84
2023-04-15T17:15:09.883Z,99326.56
2023-04-15T17:17:36.474Z,99324.16
2023-04-15T17:20:03.720Z,99336.81
2023-04-15T17:22:30.218Z,99332.34
2023-04-15T17:24:56.704Z,99346.06
2023-04-15T17:27:25.107Z,99341.16
2023-04-15T17:29:52.159Z,99344.75
2023-04-15T17:32:18.924Z,99347.31
2023-04-15T17:34:50.099Z,99343.97
2023-04-15T17:37:18.108Z,99353.00
2023-04-15T17:39:45.728Z,99355.97
2023-04-15T17:42:13.168Z,99360.22
2023-04-15T17:44:39.727Z,99376.00
2023-04-15T17:47:07.381Z,99375.09
2023-04-15T17:49:34.334Z,99384.63
2023-04-15T17:52:01.169Z,99386.75
2023-04-15T17:54:27.901Z,99389.09
2023-04-15T17:56:54.808Z,99394.47
2023-04-15T17:59:21.628Z,99392.13
2023-04-15T18:01:48.345Z,99403.47
2023-04-15T18:04:15.763Z,99400.25
2023-04-15T18:06:42.398Z,99410.72
2023-04-15T18:09:09.213Z,99404.97
2023-04-15T18:11:35.776Z,99415.03
2023-04-15T18:14:04.242Z,99407.22
2023-04-15T18:16:31.946Z,99414.75
2023-04-15T18:18:59.462Z,99419.47
2023-04-15T18:21:27.103Z,99424.03
2023-04-15T18:23:53.701Z,99425.22
2023-04-15T18:26:21.578Z,99422.25
2023-04-15T18:28:48.068Z,99429.16
2023-04-15T18:31:14.626Z,99433.38
2023-04-15T18:33:41.160Z,99437.94
2023-04-15T18:36:08.222Z,99442.06
2023-04-15T18:38:35.504Z,99444.03
2023-04-15T18:41:03.139Z,99447.06
2023-04-15T18:43:29.717Z,99439.53
2023-04-15T18:45:56.349Z,99449.13
2023-04-15T18:48:23.389Z,99456.13
2023-04-15T18:50:53.876Z,99447.78
2023-04-15T18:53:21.367Z,99453.78
2023-04-15T18:55:47.875Z,99454.50
2023-04-15T18:58:14.356Z,99458.94
2023-04-15T19:00:44.572Z,99453.28
2023-04-15T19:03:11.869Z,99466.63
2023-04-15T19:05:38.662Z,99463.59
2023-04-15T19:08:05.589Z,99468.22
2023-04-15T19:10:32.108Z,99466.16
2023-04-15T19:12:58.727Z,99472.78
2023-04-15T19:15:25.448Z,99478.44
2023-04-15T19:17:52.088Z,99483.44
2023-04-15T19:20:18.667Z,99482.19
2023-04-15T19:22:45.289Z,99490.06
2023-04-15T19:25:12.065Z,99491.38
2023-04-15T19:27:38.665Z,99504.88
2023-04-15T19:30:08.254Z,99492.78
2023-04-15T19:32:36.233Z,99507.22
2023-04-15T19:35:02.861Z,99505.59
2023-04-15T19:37:29.349Z,99510.94
2023-04-15T19:39:56.104Z,99509.56
2023-04-15T19:42:22.763Z,99509.56
2023-04-15T19:44:49.351Z,99508.06
2023-04-15T19:47:15.919Z,99507.94
2023-04-15T19:49:42.432Z,99515.78
2023-04-15T19:52:08.874Z,99515.13
2023-04-15T19:54:36.324Z,99512.34
2023-04-15T19:57:02.985Z,99510.72
2023-04-15T19:59:29.429Z,99519.63
2023-04-15T20:01:56.017Z,99524.38
2023-04-15T20:04:22.908Z,99516.03
2023-04-15T20:06:49.798Z,99525.16
2023-04-15T20:09:16.307Z,99523.19
2023-04-15T20:12:45.692Z,99533.03
2023-04-15T20:14:29.835Z,99534.44
2023-04-15T20:16:56.316Z,99543.78
2023-04-15T20:19:22.860Z,99540.00
2023-04-15T20:21:51.302Z,99546.56
2023-04-15T20:24:20.235Z,99552.22
2023-04-15T20:26:47.162Z,99562.25
2023-04-15T20:29:13.959Z,99560.88
2023-04-15T20:31:40.670Z,99552.09
2023-04-15T20:34:08.216Z,99560.06
2023-04-15T20:36:36.419Z,99562.44
2023-04-15T20:39:03.029Z,99569.13
2023-04-15T20:41:29.822Z,99576.19
2023-04-15T20:43:56.431Z,99565.44
2023-04-15T20:46:24.084Z,99572.59
2023-04-15T20:48:52.376Z,99573.88
2023-04-15T20:51:18.957Z,99573.22
2023-04-15T20:53:45.392Z,99567.97
2023-04-15T20:56:11.806Z,99582.53
2023-04-15T20:58:38.679Z,99581.25
2023-04-15T21:01:05.527Z,99585.28
2023-04-15T21:03:32.485Z,99586.44
2023-04-15T21:05:59.225Z,99583.56
2023-04-15T21:08:29.594Z,99583.44
2023-04-15T21:10:57.006Z,99594.63
2023-04-15T21:13:23.986Z,99586.09
2023-04-15T21:15:53.391Z,99588.41
2023-04-15T21:18:22.788Z,99600.19
2023-04-15T21:21:00.264Z,99602.38
2023-04-15T21:23:30.386Z,99610.13
2023-04-15T21:25:58.406Z,99614.38
2023-04-15T21:28:27.871Z,99623.72
2023-04-15T21:30:54.406Z,99625.22
2023-04-15T21:33:21.087Z,99626.16
2023-04-15T21:35:47.750Z,99624.31
2023-04-15T21:38:14.518Z,99615.53
2023-04-15T21:40:41.311Z,99622.34
2023-04-15T21:43:08.409Z,99630.66
2023-04-15T21:45:36.041Z,99629.97
2023-04-15T21:48:07.190Z,99636.16
2023-04-15T21:50:36.613Z,99636.22
2023-04-15T21:53:03.848Z,99636.34
2023-04-15T21:55:30.517Z,99642.09
2023-04-15T21:57:57.289Z,99638.72
2023-04-15T22:00:24.225Z,99630.41
2023-04-15T22:02:51.681Z,99640.22
2023-04-15T22:05:18.756Z,99644.28
2023-04-15T22:07:45.537Z,99647.84
2023-04-15T22:10:12.300Z,99646.81
2023-04-15T22:12:41.772Z,99661.16
2023-04-15T22:15:09.002Z,99654.22
2023-04-15T22:17:35.944Z,99649.13
2023-04-15T22:20:03.124Z,99661.03
2023-04-15T22:22:44.111Z,99657.91
2023-04-15T22:25:11.733Z,99658.03
2023-04-15T22:27:38.448Z,99666.69
2023-04-15T22:30:06.103Z,99667.84
2023-04-15T22:32:32.893Z,99665.41
2023-04-15T22:34:59.604Z,99669.13
2023-04-15T22:37:26.438Z,99679.63
2023-04-15T22:39:53.217Z,99679.28
2023-04-15T22:42:19.901Z,99676.50
2023-04-15T22:44:46.606Z,99689.34
2023-04-15T22:47:13.434Z,99696.16
2023-04-15T22:49:41.132Z,99694.53
2023-04-15T22:52:09.048Z,99692.91
2023-04-15T22:54:38.894Z,99689.34
2023-04-15T22:57:05.704Z,99691.31
2023-04-15T22:59:32.201Z,99701.72
2023-04-15T23:01:59.384Z,99698.47
2023-04-15T23:04:28.090Z,99693.53
2023-04-15T23:06:55.852Z,99698.59
2023-04-15T23:09:22.583Z,99701.56
2023-04-15T23:11:49.406Z,99710.22
2023-04-15T23:14:16.719Z,99704.22
2023-04-15T23:16:43.712Z,99706.38
2023-04-15T23:19:11.356Z,99709.84
2023-04-15T23:21:38.294Z,99708.34
2023-04-15T23:24:05.472Z,99710.31
2023-04-15T23:26:32.137Z,99712.94
2023-04-15T23:28:59.081Z,99713.56
2023-04-15T23:31:26.240Z,99713.63
2023-04-15T23:33:53.499Z,99714.31
2023-04-15T23:36:20.594Z,99717.47
2023-04-15T23:38:47.884Z,99719.44
2023-04-15T23:41:14.773Z,99723.09
2023-04-15T23:43:41.445Z,99720.16
2023-04-15T23:46:08.574Z,99724.13
2023-04-15T23:48:35.404Z,99714.53
2023-04-15T23:51:02.111Z,99715.47
2023-04-15T23:53:29.829Z,99724.19
2023-04-15T23:55:56.801Z,99726.00
2023-04-15T23:58:23.572Z,99726.06
